sensor_id;sensor_type;location;lat;lon;timestamp;P1;durP1;ratioP1;P2;durP2;ratioP2
19436;SDS011;9854;50.968;4.168;2024-02-26T00:01:01;3.10;;;1.50;;
19436;SDS011;9854;50.968;4.168;2024-02-26T00:03:27;1.90;;;1.33;;
19436;SDS011;9854;50.968;4.168;2024-02-26T00:05:53;2.10;;;1.58;;
19436;SDS011;9854;50.968;4.168;2024-02-26T00:08:18;1.63;;;1.40;;
19436;SDS011;9854;50.968;4.168;2024-02-26T00:10:44;2.50;;;1.58;;
19436;SDS011;9854;50.968;4.168;2024-02-26T00:13:13;2.58;;;1.73;;
19436;SDS011;9854;50.968;4.168;2024-02-26T00:15:39;2.38;;;1.80;;
19436;SDS011;9854;50.968;4.168;2024-02-26T00:18:05;2.20;;;1.60;;
19436;SDS011;9854;50.968;4.168;2024-02-26T00:20:30;4.30;;;1.50;;
19436;SDS011;9854;50.968;4.168;2024-02-26T00:22:56;1.65;;;1.30;;
19436;SDS011;9854;50.968;4.168;2024-02-26T00:25:22;5.80;;;1.70;;
19436;SDS011;9854;50.968;4.168;2024-02-26T00:27:47;2.15;;;1.52;;
19436;SDS011;9854;50.968;4.168;2024-02-26T00:30:13;2.40;;;1.63;;
19436;SDS011;9854;50.968;4.168;2024-02-26T00:32:39;1.83;;;1.48;;
19436;SDS011;9854;50.968;4.168;2024-02-26T00:35:05;1.88;;;1.25;;
19436;SDS011;9854;50.968;4.168;2024-02-26T00:37:31;2.13;;;1.30;;
19436;SDS011;9854;50.968;4.168;2024-02-26T00:39:57;1.75;;;1.15;;
19436;SDS011;9854;50.968;4.168;2024-02-26T00:42:22;1.38;;;1.27;;
19436;SDS011;9854;50.968;4.168;2024-02-26T00:44:48;2.35;;;1.27;;
19436;SDS011;9854;50.968;4.168;2024-02-26T00:47:16;3.30;;;1.63;;
19436;SDS011;9854;50.968;4.168;2024-02-26T00:49:42;5.03;;;1.77;;
19436;SDS011;9854;50.968;4.168;2024-02-26T00:52:07;1.48;;;1.10;;
19436;SDS011;9854;50.968;4.168;2024-02-26T00:54:35;1.67;;;1.20;;
19436;SDS011;9854;50.968;4.168;2024-02-26T00:57:03;1.77;;;1.55;;
19436;SDS011;9854;50.968;4.168;2024-02-26T00:59:31;2.23;;;1.60;;
19436;SDS011;9854;50.968;4.168;2024-02-26T01:01:59;5.45;;;1.70;;
19436;SDS011;9854;50.968;4.168;2024-02-26T01:04:27;4.40;;;1.80;;
19436;SDS011;9854;50.968;4.168;2024-02-26T01:06:55;3.40;;;1.60;;
19436;SDS011;9854;50.968;4.168;2024-02-26T01:09:22;3.30;;;1.77;;
19436;SDS011;9854;50.968;4.168;2024-02-26T01:11:48;3.33;;;1.45;;
19436;SDS011;9854;50.968;4.168;2024-02-26T01:14:14;2.83;;;1.38;;
19436;SDS011;9854;50.968;4.168;2024-02-26T01:16:39;1.58;;;1.42;;
19436;SDS011;9854;50.968;4.168;2024-02-26T01:19:05;2.42;;;1.35;;
19436;SDS011;9854;50.968;4.168;2024-02-26T01:21:33;1.50;;;1.13;;
19436;SDS011;9854;50.968;4.168;2024-02-26T01:23:58;1.60;;;1.25;;
19436;SDS011;9854;50.968;4.168;2024-02-26T01:26:24;1.88;;;1.25;;
19436;SDS011;9854;50.968;4.168;2024-02-26T01:28:50;2.67;;;1.40;;
19436;SDS011;9854;50.968;4.168;2024-02-26T01:31:15;1.63;;;1.33;;
19436;SDS011;9854;50.968;4.168;2024-02-26T01:33:41;1.10;;;1.00;;
19436;SDS011;9854;50.968;4.168;2024-02-26T01:36:06;1.77;;;1.37;;
19436;SDS011;9854;50.968;4.168;2024-02-26T01:38:34;1.40;;;1.30;;
19436;SDS011;9854;50.968;4.168;2024-02-26T01:41:00;1.73;;;1.10;;
19436;SDS011;9854;50.968;4.168;2024-02-26T01:43:26;1.70;;;1.30;;
19436;SDS011;9854;50.968;4.168;2024-02-26T01:45:52;2.55;;;1.20;;
19436;SDS011;9854;50.968;4.168;2024-02-26T01:48:17;1.10;;;1.00;;
19436;SDS011;9854;50.968;4.168;2024-02-26T01:50:43;3.70;;;1.00;;
19436;SDS011;9854;50.968;4.168;2024-02-26T01:53:09;2.05;;;1.30;;
19436;SDS011;9854;50.968;4.168;2024-02-26T01:55:35;1.30;;;1.20;;
19436;SDS011;9854;50.968;4.168;2024-02-26T01:58:04;2.88;;;1.25;;
19436;SDS011;9854;50.968;4.168;2024-02-26T02:00:30;1.58;;;1.20;;
19436;SDS011;9854;50.968;4.168;2024-02-26T02:02:56;1.92;;;1.30;;
19436;SDS011;9854;50.968;4.168;2024-02-26T02:05:22;2.40;;;1.40;;
19436;SDS011;9854;50.968;4.168;2024-02-26T02:07:50;2.80;;;1.55;;
19436;SDS011;9854;50.968;4.168;2024-02-26T02:10:17;3.33;;;1.45;;
19436;SDS011;9854;50.968;4.168;2024-02-26T02:12:47;1.63;;;1.50;;
19436;SDS011;9854;50.968;4.168;2024-02-26T02:15:13;1.60;;;1.50;;
19436;SDS011;9854;50.968;4.168;2024-02-26T02:17:39;2.10;;;1.80;;
19436;SDS011;9854;50.968;4.168;2024-02-26T02:20:17;2.15;;;1.70;;
19436;SDS011;9854;50.968;4.168;2024-02-26T02:22:46;2.95;;;1.75;;
19436;SDS011;9854;50.968;4.168;2024-02-26T02:25:12;2.50;;;1.50;;
19436;SDS011;9854;50.968;4.168;2024-02-26T02:27:39;2.05;;;1.63;;
19436;SDS011;9854;50.968;4.168;2024-02-26T02:30:05;4.10;;;1.90;;
19436;SDS011;9854;50.968;4.168;2024-02-26T02:32:32;1.73;;;1.60;;
19436;SDS011;9854;50.968;4.168;2024-02-26T02:34:58;4.90;;;1.73;;
19436;SDS011;9854;50.968;4.168;2024-02-26T02:37:24;2.55;;;2.05;;
19436;SDS011;9854;50.968;4.168;2024-02-26T02:39:49;2.10;;;1.90;;
19436;SDS011;9854;50.968;4.168;2024-02-26T02:42:17;3.10;;;2.03;;
19436;SDS011;9854;50.968;4.168;2024-02-26T02:44:46;2.22;;;1.90;;
19436;SDS011;9854;50.968;4.168;2024-02-26T02:47:11;3.83;;;2.28;;
19436;SDS011;9854;50.968;4.168;2024-02-26T02:49:37;3.30;;;2.23;;
19436;SDS011;9854;50.968;4.168;2024-02-26T02:52:04;2.57;;;2.00;;
19436;SDS011;9854;50.968;4.168;2024-02-26T02:54:30;3.65;;;2.10;;
19436;SDS011;9854;50.968;4.168;2024-02-26T02:56:56;4.10;;;2.22;;
19436;SDS011;9854;50.968;4.168;2024-02-26T02:59:24;2.37;;;2.17;;
19436;SDS011;9854;50.968;4.168;2024-02-26T03:01:50;6.20;;;2.60;;
19436;SDS011;9854;50.968;4.168;2024-02-26T03:04:17;3.17;;;2.40;;
19436;SDS011;9854;50.968;4.168;2024-02-26T03:06:42;2.85;;;2.65;;
19436;SDS011;9854;50.968;4.168;2024-02-26T03:09:08;2.77;;;2.57;;
19436;SDS011;9854;50.968;4.168;2024-02-26T03:11:34;4.33;;;2.60;;
19436;SDS011;9854;50.968;4.168;2024-02-26T03:13:59;4.37;;;2.80;;
19436;SDS011;9854;50.968;4.168;2024-02-26T03:16:27;3.20;;;2.90;;
19436;SDS011;9854;50.968;4.168;2024-02-26T03:18:53;4.93;;;3.30;;
19436;SDS011;9854;50.968;4.168;2024-02-26T03:21:24;3.27;;;2.97;;
19436;SDS011;9854;50.968;4.168;2024-02-26T03:23:50;4.53;;;3.40;;
19436;SDS011;9854;50.968;4.168;2024-02-26T03:26:16;4.17;;;3.57;;
19436;SDS011;9854;50.968;4.168;2024-02-26T03:28:42;3.83;;;3.13;;
19436;SDS011;9854;50.968;4.168;2024-02-26T03:31:07;3.70;;;3.07;;
19436;SDS011;9854;50.968;4.168;2024-02-26T03:33:33;4.70;;;3.67;;
19436;SDS011;9854;50.968;4.168;2024-02-26T03:35:59;3.73;;;3.43;;
19436;SDS011;9854;50.968;4.168;2024-02-26T03:38:25;3.57;;;3.27;;
19436;SDS011;9854;50.968;4.168;2024-02-26T03:40:51;5.07;;;4.03;;
19436;SDS011;9854;50.968;4.168;2024-02-26T03:43:16;4.17;;;3.87;;
19436;SDS011;9854;50.968;4.168;2024-02-26T03:45:42;4.53;;;3.93;;
19436;SDS011;9854;50.968;4.168;2024-02-26T03:48:08;3.97;;;3.67;;
19436;SDS011;9854;50.968;4.168;2024-02-26T03:50:33;4.70;;;3.73;;
19436;SDS011;9854;50.968;4.168;2024-02-26T03:52:59;5.23;;;4.57;;
19436;SDS011;9854;50.968;4.168;2024-02-26T03:55:25;4.33;;;3.93;;
19436;SDS011;9854;50.968;4.168;2024-02-26T03:57:51;4.03;;;3.73;;
19436;SDS011;9854;50.968;4.168;2024-02-26T04:00:17;7.17;;;5.13;;
19436;SDS011;9854;50.968;4.168;2024-02-26T04:02:43;5.50;;;5.00;;
19436;SDS011;9854;50.968;4.168;2024-02-26T04:05:09;5.30;;;4.90;;
19436;SDS011;9854;50.968;4.168;2024-02-26T04:07:38;5.77;;;5.17;;
19436;SDS011;9854;50.968;4.168;2024-02-26T04:10:08;6.23;;;5.63;;
19436;SDS011;9854;50.968;4.168;2024-02-26T04:12:39;6.50;;;5.90;;
19436;SDS011;9854;50.968;4.168;2024-02-26T04:15:08;5.50;;;5.10;;
19436;SDS011;9854;50.968;4.168;2024-02-26T04:17:37;7.07;;;5.50;;
19436;SDS011;9854;50.968;4.168;2024-02-26T04:20:03;6.63;;;6.03;;
19436;SDS011;9854;50.968;4.168;2024-02-26T04:22:32;5.83;;;5.20;;
19436;SDS011;9854;50.968;4.168;2024-02-26T04:24:58;7.23;;;6.53;;
19436;SDS011;9854;50.968;4.168;2024-02-26T04:27:23;6.63;;;6.03;;
19436;SDS011;9854;50.968;4.168;2024-02-26T04:29:49;7.00;;;6.40;;
19436;SDS011;9854;50.968;4.168;2024-02-26T04:32:17;6.77;;;6.17;;
19436;SDS011;9854;50.968;4.168;2024-02-26T04:34:43;9.57;;;6.67;;
19436;SDS011;9854;50.968;4.168;2024-02-26T04:37:11;7.87;;;7.07;;
19436;SDS011;9854;50.968;4.168;2024-02-26T04:39:36;7.97;;;7.17;;
19436;SDS011;9854;50.968;4.168;2024-02-26T04:42:02;8.37;;;7.60;;
19436;SDS011;9854;50.968;4.168;2024-02-26T04:44:29;8.40;;;7.60;;
19436;SDS011;9854;50.968;4.168;2024-02-26T04:46:57;8.80;;;8.10;;
19436;SDS011;9854;50.968;4.168;2024-02-26T04:49:25;9.80;;;8.83;;
19436;SDS011;9854;50.968;4.168;2024-02-26T04:51:53;9.80;;;8.57;;
19436;SDS011;9854;50.968;4.168;2024-02-26T04:54:19;8.40;;;7.57;;
19436;SDS011;9854;50.968;4.168;2024-02-26T04:56:45;9.40;;;8.40;;
19436;SDS011;9854;50.968;4.168;2024-02-26T04:59:11;9.57;;;8.63;;
19436;SDS011;9854;50.968;4.168;2024-02-26T05:01:39;9.27;;;8.50;;
19436;SDS011;9854;50.968;4.168;2024-02-26T05:04:05;9.33;;;8.43;;
19436;SDS011;9854;50.968;4.168;2024-02-26T05:06:30;9.63;;;7.63;;
19436;SDS011;9854;50.968;4.168;2024-02-26T05:08:58;9.40;;;8.60;;
19436;SDS011;9854;50.968;4.168;2024-02-26T05:11:26;9.10;;;8.30;;
19436;SDS011;9854;50.968;4.168;2024-02-26T05:13:52;9.00;;;8.30;;
19436;SDS011;9854;50.968;4.168;2024-02-26T05:16:18;9.63;;;8.50;;
19436;SDS011;9854;50.968;4.168;2024-02-26T05:18:45;8.77;;;8.07;;
19436;SDS011;9854;50.968;4.168;2024-02-26T05:21:11;8.93;;;8.10;;
19436;SDS011;9854;50.968;4.168;2024-02-26T05:23:36;8.90;;;8.20;;
19436;SDS011;9854;50.968;4.168;2024-02-26T05:26:05;8.47;;;7.67;;
19436;SDS011;9854;50.968;4.168;2024-02-26T05:28:30;9.23;;;8.43;;
19436;SDS011;9854;50.968;4.168;2024-02-26T05:31:04;9.57;;;8.67;;
19436;SDS011;9854;50.968;4.168;2024-02-26T05:33:34;9.30;;;8.43;;
19436;SDS011;9854;50.968;4.168;2024-02-26T05:36:00;9.67;;;8.23;;
19436;SDS011;9854;50.968;4.168;2024-02-26T05:38:29;7.93;;;7.33;;
19436;SDS011;9854;50.968;4.168;2024-02-26T05:40:54;8.33;;;7.63;;
19436;SDS011;9854;50.968;4.168;2024-02-26T05:43:25;8.43;;;7.63;;
19436;SDS011;9854;50.968;4.168;2024-02-26T05:45:51;8.02;;;7.28;;
19436;SDS011;9854;50.968;4.168;2024-02-26T05:48:17;7.20;;;6.60;;
19436;SDS011;9854;50.968;4.168;2024-02-26T05:50:44;6.67;;;6.07;;
19436;SDS011;9854;50.968;4.168;2024-02-26T05:53:13;7.03;;;6.53;;
19436;SDS011;9854;50.968;4.168;2024-02-26T05:55:39;7.25;;;6.65;;
19436;SDS011;9854;50.968;4.168;2024-02-26T05:58:05;6.35;;;5.88;;
19436;SDS011;9854;50.968;4.168;2024-02-26T06:00:30;6.23;;;5.73;;
19436;SDS011;9854;50.968;4.168;2024-02-26T06:02:56;6.23;;;5.63;;
19436;SDS011;9854;50.968;4.168;2024-02-26T06:05:22;6.43;;;5.82;;
19436;SDS011;9854;50.968;4.168;2024-02-26T06:07:48;6.00;;;5.60;;
19436;SDS011;9854;50.968;4.168;2024-02-26T06:10:14;5.77;;;5.37;;
19436;SDS011;9854;50.968;4.168;2024-02-26T06:12:46;6.33;;;5.80;;
19436;SDS011;9854;50.968;4.168;2024-02-26T06:15:14;6.30;;;5.90;;
19436;SDS011;9854;50.968;4.168;2024-02-26T06:17:40;5.70;;;5.20;;
19436;SDS011;9854;50.968;4.168;2024-02-26T06:20:06;6.17;;;5.63;;
19436;SDS011;9854;50.968;4.168;2024-02-26T06:22:36;6.33;;;5.93;;
19436;SDS011;9854;50.968;4.168;2024-02-26T06:25:04;6.60;;;6.10;;
19436;SDS011;9854;50.968;4.168;2024-02-26T06:27:32;5.87;;;5.40;;
19436;SDS011;9854;50.968;4.168;2024-02-26T06:29:58;6.03;;;5.63;;
19436;SDS011;9854;50.968;4.168;2024-02-26T06:32:26;6.20;;;5.73;;
19436;SDS011;9854;50.968;4.168;2024-02-26T06:34:53;6.20;;;5.70;;
19436;SDS011;9854;50.968;4.168;2024-02-26T06:37:19;7.10;;;6.50;;
19436;SDS011;9854;50.968;4.168;2024-02-26T06:39:45;6.70;;;6.30;;
19436;SDS011;9854;50.968;4.168;2024-02-26T06:42:11;7.03;;;6.53;;
19436;SDS011;9854;50.968;4.168;2024-02-26T06:44:37;6.50;;;6.00;;
19436;SDS011;9854;50.968;4.168;2024-02-26T06:47:02;6.57;;;6.07;;
19436;SDS011;9854;50.968;4.168;2024-02-26T06:49:29;7.00;;;6.30;;
19436;SDS011;9854;50.968;4.168;2024-02-26T06:51:54;6.13;;;5.67;;
19436;SDS011;9854;50.968;4.168;2024-02-26T06:54:20;6.85;;;6.30;;
19436;SDS011;9854;50.968;4.168;2024-02-26T06:56:46;6.90;;;6.40;;
19436;SDS011;9854;50.968;4.168;2024-02-26T06:59:14;6.83;;;6.33;;
19436;SDS011;9854;50.968;4.168;2024-02-26T07:01:40;6.40;;;6.00;;
19436;SDS011;9854;50.968;4.168;2024-02-26T07:04:06;6.75;;;6.25;;
19436;SDS011;9854;50.968;4.168;2024-02-26T07:06:32;6.70;;;6.20;;
19436;SDS011;9854;50.968;4.168;2024-02-26T07:09:00;6.70;;;6.20;;
19436;SDS011;9854;50.968;4.168;2024-02-26T07:11:26;7.50;;;6.90;;
19436;SDS011;9854;50.968;4.168;2024-02-26T07:13:51;7.53;;;6.97;;
19436;SDS011;9854;50.968;4.168;2024-02-26T07:16:17;6.93;;;6.43;;
19436;SDS011;9854;50.968;4.168;2024-02-26T07:18:42;7.23;;;6.70;;
19436;SDS011;9854;50.968;4.168;2024-02-26T07:21:10;7.47;;;6.10;;
19436;SDS011;9854;50.968;4.168;2024-02-26T07:23:37;6.43;;;5.83;;
19436;SDS011;9854;50.968;4.168;2024-02-26T07:26:03;6.57;;;6.17;;
19436;SDS011;9854;50.968;4.168;2024-02-26T07:28:28;6.07;;;5.67;;
19436;SDS011;9854;50.968;4.168;2024-02-26T07:30:54;6.00;;;5.60;;
19436;SDS011;9854;50.968;4.168;2024-02-26T07:33:20;6.80;;;6.30;;
19436;SDS011;9854;50.968;4.168;2024-02-26T07:35:46;8.30;;;5.97;;
19436;SDS011;9854;50.968;4.168;2024-02-26T07:38:11;6.17;;;5.70;;
19436;SDS011;9854;50.968;4.168;2024-02-26T07:40:38;5.70;;;5.30;;
19436;SDS011;9854;50.968;4.168;2024-02-26T07:43:04;6.17;;;5.67;;
19436;SDS011;9854;50.968;4.168;2024-02-26T07:45:32;5.83;;;5.43;;
19436;SDS011;9854;50.968;4.168;2024-02-26T07:47:58;6.53;;;5.90;;
19436;SDS011;9854;50.968;4.168;2024-02-26T07:50:26;5.70;;;5.30;;
19436;SDS011;9854;50.968;4.168;2024-02-26T07:52:51;6.00;;;5.60;;
19436;SDS011;9854;50.968;4.168;2024-02-26T07:55:22;6.20;;;5.70;;
19436;SDS011;9854;50.968;4.168;2024-02-26T07:57:48;6.37;;;5.80;;
19436;SDS011;9854;50.968;4.168;2024-02-26T08:00:15;5.93;;;5.53;;
19436;SDS011;9854;50.968;4.168;2024-02-26T08:02:42;5.77;;;5.20;;
19436;SDS011;9854;50.968;4.168;2024-02-26T08:05:10;5.83;;;5.40;;
19436;SDS011;9854;50.968;4.168;2024-02-26T08:07:38;5.77;;;5.37;;
19436;SDS011;9854;50.968;4.168;2024-02-26T08:10:04;6.32;;;5.10;;
19436;SDS011;9854;50.968;4.168;2024-02-26T08:12:29;5.55;;;5.15;;
19436;SDS011;9854;50.968;4.168;2024-02-26T08:14:55;6.43;;;5.93;;
19436;SDS011;9854;50.968;4.168;2024-02-26T08:17:21;5.50;;;5.00;;
19436;SDS011;9854;50.968;4.168;2024-02-26T08:19:47;6.00;;;5.50;;
19436;SDS011;9854;50.968;4.168;2024-02-26T08:22:15;6.32;;;4.93;;
19436;SDS011;9854;50.968;4.168;2024-02-26T08:24:43;4.72;;;4.32;;
19436;SDS011;9854;50.968;4.168;2024-02-26T08:27:13;5.20;;;4.90;;
19436;SDS011;9854;50.968;4.168;2024-02-26T08:29:39;5.22;;;4.82;;
19436;SDS011;9854;50.968;4.168;2024-02-26T08:32:07;5.00;;;4.57;;
19436;SDS011;9854;50.968;4.168;2024-02-26T08:34:32;5.60;;;5.20;;
19436;SDS011;9854;50.968;4.168;2024-02-26T08:37:00;5.30;;;4.90;;
19436;SDS011;9854;50.968;4.168;2024-02-26T08:39:29;5.27;;;4.87;;
19436;SDS011;9854;50.968;4.168;2024-02-26T08:41:54;5.40;;;5.00;;
19436;SDS011;9854;50.968;4.168;2024-02-26T08:44:20;5.10;;;4.80;;
19436;SDS011;9854;50.968;4.168;2024-02-26T08:46:46;5.30;;;4.80;;
19436;SDS011;9854;50.968;4.168;2024-02-26T08:49:11;5.68;;;5.28;;
19436;SDS011;9854;50.968;4.168;2024-02-26T08:51:43;4.93;;;4.60;;
19436;SDS011;9854;50.968;4.168;2024-02-26T08:54:09;5.80;;;5.40;;
19436;SDS011;9854;50.968;4.168;2024-02-26T08:56:35;6.30;;;5.00;;
19436;SDS011;9854;50.968;4.168;2024-02-26T08:59:03;5.43;;;5.10;;
19436;SDS011;9854;50.968;4.168;2024-02-26T09:01:29;5.40;;;5.00;;
19436;SDS011;9854;50.968;4.168;2024-02-26T09:03:56;5.97;;;5.57;;
19436;SDS011;9854;50.968;4.168;2024-02-26T09:06:22;6.05;;;5.60;;
19436;SDS011;9854;50.968;4.168;2024-02-26T09:08:48;6.50;;;6.00;;
19436;SDS011;9854;50.968;4.168;2024-02-26T09:11:13;6.30;;;5.80;;
19436;SDS011;9854;50.968;4.168;2024-02-26T09:13:39;6.73;;;6.23;;
19436;SDS011;9854;50.968;4.168;2024-02-26T09:16:05;6.53;;;5.88;;
19436;SDS011;9854;50.968;4.168;2024-02-26T09:18:31;6.50;;;6.00;;
19436;SDS011;9854;50.968;4.168;2024-02-26T09:20:57;6.32;;;5.82;;
19436;SDS011;9854;50.968;4.168;2024-02-26T09:23:22;6.57;;;6.07;;
19436;SDS011;9854;50.968;4.168;2024-02-26T09:25:49;6.43;;;5.93;;
19436;SDS011;9854;50.968;4.168;2024-02-26T09:28:15;6.30;;;5.80;;
19436;SDS011;9854;50.968;4.168;2024-02-26T09:30:42;5.93;;;5.53;;
19436;SDS011;9854;50.968;4.168;2024-02-26T09:33:10;6.40;;;5.90;;
19436;SDS011;9854;50.968;4.168;2024-02-26T09:35:36;5.97;;;5.47;;
19436;SDS011;9854;50.968;4.168;2024-02-26T09:38:02;6.47;;;5.93;;
19436;SDS011;9854;50.968;4.168;2024-02-26T09:40:28;6.00;;;5.60;;
19436;SDS011;9854;50.968;4.168;2024-02-26T09:42:59;6.20;;;5.77;;
19436;SDS011;9854;50.968;4.168;2024-02-26T09:45:26;6.00;;;5.57;;
19436;SDS011;9854;50.968;4.168;2024-02-26T09:47:54;5.60;;;5.30;;
19436;SDS011;9854;50.968;4.168;2024-02-26T09:50:21;5.60;;;5.20;;
19436;SDS011;9854;50.968;4.168;2024-02-26T09:52:47;5.90;;;5.50;;
19436;SDS011;9854;50.968;4.168;2024-02-26T09:55:14;5.60;;;5.20;;
19436;SDS011;9854;50.968;4.168;2024-02-26T09:57:47;5.70;;;5.30;;
19436;SDS011;9854;50.968;4.168;2024-02-26T10:00:20;6.17;;;5.67;;
19436;SDS011;9854;50.968;4.168;2024-02-26T10:02:47;5.97;;;5.47;;
19436;SDS011;9854;50.968;4.168;2024-02-26T10:05:14;6.30;;;5.15;;
19436;SDS011;9854;50.968;4.168;2024-02-26T10:07:45;6.43;;;5.00;;
19436;SDS011;9854;50.968;4.168;2024-02-26T10:10:11;5.30;;;4.80;;
19436;SDS011;9854;50.968;4.168;2024-02-26T10:12:42;6.30;;;4.73;;
19436;SDS011;9854;50.968;4.168;2024-02-26T10:15:10;5.72;;;5.20;;
19436;SDS011;9854;50.968;4.168;2024-02-26T10:17:35;4.73;;;4.43;;
19436;SDS011;9854;50.968;4.168;2024-02-26T10:20:15;5.67;;;5.23;;
19436;SDS011;9854;50.968;4.168;2024-02-26T10:22:43;5.57;;;5.17;;
19436;SDS011;9854;50.968;4.168;2024-02-26T10:25:11;5.47;;;5.07;;
19436;SDS011;9854;50.968;4.168;2024-02-26T10:27:37;13.20;;;6.83;;
19436;SDS011;9854;50.968;4.168;2024-02-26T10:30:24;5.10;;;4.80;;
19436;SDS011;9854;50.968;4.168;2024-02-26T10:32:50;5.30;;;4.97;;
19436;SDS011;9854;50.968;4.168;2024-02-26T10:35:17;5.90;;;5.40;;
19436;SDS011;9854;50.968;4.168;2024-02-26T10:37:43;5.67;;;5.27;;
19436;SDS011;9854;50.968;4.168;2024-02-26T10:40:10;5.23;;;4.80;;
19436;SDS011;9854;50.968;4.168;2024-02-26T10:42:36;5.90;;;5.33;;
19436;SDS011;9854;50.968;4.168;2024-02-26T10:45:03;4.90;;;4.60;;
19436;SDS011;9854;50.968;4.168;2024-02-26T10:47:34;8.93;;;4.87;;
19436;SDS011;9854;50.968;4.168;2024-02-26T10:50:04;5.50;;;5.00;;
19436;SDS011;9854;50.968;4.168;2024-02-26T10:52:32;5.43;;;5.03;;
19436;SDS011;9854;50.968;4.168;2024-02-26T10:55:02;5.80;;;5.40;;
19436;SDS011;9854;50.968;4.168;2024-02-26T10:57:33;5.73;;;5.33;;
19436;SDS011;9854;50.968;4.168;2024-02-26T11:00:05;6.10;;;5.70;;
19436;SDS011;9854;50.968;4.168;2024-02-26T11:02:32;5.77;;;5.30;;
19436;SDS011;9854;50.968;4.168;2024-02-26T11:05:00;6.23;;;5.73;;
19436;SDS011;9854;50.968;4.168;2024-02-26T11:07:29;6.00;;;5.50;;
19436;SDS011;9854;50.968;4.168;2024-02-26T11:09:56;5.70;;;5.30;;
19436;SDS011;9854;50.968;4.168;2024-02-26T11:12:24;5.87;;;5.43;;
19436;SDS011;9854;50.968;4.168;2024-02-26T11:14:53;6.37;;;5.87;;
19436;SDS011;9854;50.968;4.168;2024-02-26T11:17:21;6.00;;;5.53;;
19436;SDS011;9854;50.968;4.168;2024-02-26T11:19:49;7.07;;;6.37;;
19436;SDS011;9854;50.968;4.168;2024-02-26T11:22:16;6.10;;;5.70;;
19436;SDS011;9854;50.968;4.168;2024-02-26T11:24:42;6.73;;;6.20;;
19436;SDS011;9854;50.968;4.168;2024-02-26T11:27:09;6.33;;;5.80;;
19436;SDS011;9854;50.968;4.168;2024-02-26T11:29:41;7.30;;;6.20;;
19436;SDS011;9854;50.968;4.168;2024-02-26T11:32:12;6.63;;;6.07;;
19436;SDS011;9854;50.968;4.168;2024-02-26T11:34:38;6.30;;;5.83;;
19436;SDS011;9854;50.968;4.168;2024-02-26T11:37:14;7.17;;;6.57;;
19436;SDS011;9854;50.968;4.168;2024-02-26T11:39:41;6.83;;;6.23;;
19436;SDS011;9854;50.968;4.168;2024-02-26T11:42:08;6.90;;;6.30;;
19436;SDS011;9854;50.968;4.168;2024-02-26T11:44:36;6.57;;;6.07;;
19436;SDS011;9854;50.968;4.168;2024-02-26T11:47:11;6.27;;;5.77;;
19436;SDS011;9854;50.968;4.168;2024-02-26T11:49:38;5.80;;;5.33;;
19436;SDS011;9854;50.968;4.168;2024-02-26T11:52:05;5.57;;;5.17;;
19436;SDS011;9854;50.968;4.168;2024-02-26T11:55:07;6.70;;;6.10;;
19436;SDS011;9854;50.968;4.168;2024-02-26T11:57:32;6.30;;;5.90;;
19436;SDS011;9854;50.968;4.168;2024-02-26T12:02:45;6.10;;;5.60;;
19436;SDS011;9854;50.968;4.168;2024-02-26T12:05:12;5.53;;;5.13;;
19436;SDS011;9854;50.968;4.168;2024-02-26T12:07:49;5.70;;;5.30;;
19436;SDS011;9854;50.968;4.168;2024-02-26T12:10:27;5.80;;;5.30;;
19436;SDS011;9854;50.968;4.168;2024-02-26T12:12:59;5.53;;;5.03;;
19436;SDS011;9854;50.968;4.168;2024-02-26T12:15:35;5.40;;;4.90;;
19436;SDS011;9854;50.968;4.168;2024-02-26T12:18:03;5.20;;;4.80;;
19436;SDS011;9854;50.968;4.168;2024-02-26T12:20:30;5.47;;;5.07;;
19436;SDS011;9854;50.968;4.168;2024-02-26T12:22:56;4.97;;;4.57;;
19436;SDS011;9854;50.968;4.168;2024-02-26T12:25:26;5.50;;;5.10;;
19436;SDS011;9854;50.968;4.168;2024-02-26T12:27:56;6.20;;;5.70;;
19436;SDS011;9854;50.968;4.168;2024-02-26T12:30:23;5.23;;;4.83;;
19436;SDS011;9854;50.968;4.168;2024-02-26T12:32:51;6.67;;;5.90;;
19436;SDS011;9854;50.968;4.168;2024-02-26T12:35:17;5.83;;;5.40;;
19436;SDS011;9854;50.968;4.168;2024-02-26T12:37:46;5.93;;;5.53;;
19436;SDS011;9854;50.968;4.168;2024-02-26T12:40:12;5.80;;;5.40;;
19436;SDS011;9854;50.968;4.168;2024-02-26T12:42:38;5.50;;;5.10;;
19436;SDS011;9854;50.968;4.168;2024-02-26T12:45:06;6.50;;;6.00;;
19436;SDS011;9854;50.968;4.168;2024-02-26T12:47:40;6.20;;;5.70;;
19436;SDS011;9854;50.968;4.168;2024-02-26T12:50:07;6.50;;;6.00;;
19436;SDS011;9854;50.968;4.168;2024-02-26T12:52:40;6.87;;;6.27;;
19436;SDS011;9854;50.968;4.168;2024-02-26T12:55:08;6.20;;;5.70;;
19436;SDS011;9854;50.968;4.168;2024-02-26T12:57:38;6.03;;;5.60;;
19436;SDS011;9854;50.968;4.168;2024-02-26T13:00:11;6.13;;;5.67;;
19436;SDS011;9854;50.968;4.168;2024-02-26T13:02:39;7.00;;;6.37;;
19436;SDS011;9854;50.968;4.168;2024-02-26T13:05:09;6.50;;;6.00;;
19436;SDS011;9854;50.968;4.168;2024-02-26T13:07:44;6.03;;;5.63;;
19436;SDS011;9854;50.968;4.168;2024-02-26T13:10:13;7.17;;;6.47;;
19436;SDS011;9854;50.968;4.168;2024-02-26T13:12:46;6.63;;;6.13;;
19436;SDS011;9854;50.968;4.168;2024-02-26T13:15:16;6.00;;;5.50;;
19436;SDS011;9854;50.968;4.168;2024-02-26T13:17:46;6.17;;;5.67;;
19436;SDS011;9854;50.968;4.168;2024-02-26T13:20:13;6.15;;;5.65;;
19436;SDS011;9854;50.968;4.168;2024-02-26T13:22:50;6.53;;;6.03;;
19436;SDS011;9854;50.968;4.168;2024-02-26T13:25:20;5.90;;;5.50;;
19436;SDS011;9854;50.968;4.168;2024-02-26T13:27:46;6.70;;;6.17;;
19436;SDS011;9854;50.968;4.168;2024-02-26T13:30:12;6.27;;;5.77;;
19436;SDS011;9854;50.968;4.168;2024-02-26T13:32:38;6.20;;;5.68;;
19436;SDS011;9854;50.968;4.168;2024-02-26T13:35:08;6.45;;;5.85;;
19436;SDS011;9854;50.968;4.168;2024-02-26T13:37:38;6.32;;;5.82;;
19436;SDS011;9854;50.968;4.168;2024-02-26T13:40:09;6.60;;;6.10;;
19436;SDS011;9854;50.968;4.168;2024-02-26T13:42:36;6.07;;;5.57;;
19436;SDS011;9854;50.968;4.168;2024-02-26T13:45:02;6.40;;;5.90;;
19436;SDS011;9854;50.968;4.168;2024-02-26T13:47:31;6.77;;;6.13;;
19436;SDS011;9854;50.968;4.168;2024-02-26T13:49:58;6.93;;;6.43;;
19436;SDS011;9854;50.968;4.168;2024-02-26T13:52:24;6.88;;;6.28;;
19436;SDS011;9854;50.968;4.168;2024-02-26T13:54:50;6.80;;;6.22;;
19436;SDS011;9854;50.968;4.168;2024-02-26T13:57:16;7.25;;;6.47;;
19436;SDS011;9854;50.968;4.168;2024-02-26T13:59:45;6.97;;;6.37;;
19436;SDS011;9854;50.968;4.168;2024-02-26T14:02:11;7.33;;;6.73;;
19436;SDS011;9854;50.968;4.168;2024-02-26T14:04:37;7.20;;;6.63;;
19436;SDS011;9854;50.968;4.168;2024-02-26T14:07:05;7.43;;;6.67;;
19436;SDS011;9854;50.968;4.168;2024-02-26T14:09:32;7.50;;;6.90;;
19436;SDS011;9854;50.968;4.168;2024-02-26T14:12:00;6.85;;;6.25;;
19436;SDS011;9854;50.968;4.168;2024-02-26T14:14:28;7.13;;;6.57;;
19436;SDS011;9854;50.968;4.168;2024-02-26T14:17:00;6.95;;;6.35;;
19436;SDS011;9854;50.968;4.168;2024-02-26T14:19:26;6.15;;;5.65;;
19436;SDS011;9854;50.968;4.168;2024-02-26T14:21:52;6.93;;;6.22;;
19436;SDS011;9854;50.968;4.168;2024-02-26T14:24:20;5.83;;;5.43;;
19436;SDS011;9854;50.968;4.168;2024-02-26T14:26:48;6.30;;;5.80;;
19436;SDS011;9854;50.968;4.168;2024-02-26T14:29:16;6.00;;;5.50;;
19436;SDS011;9854;50.968;4.168;2024-02-26T14:31:41;6.03;;;5.53;;
19436;SDS011;9854;50.968;4.168;2024-02-26T14:34:09;6.27;;;5.67;;
19436;SDS011;9854;50.968;4.168;2024-02-26T14:36:35;5.57;;;5.18;;
19436;SDS011;9854;50.968;4.168;2024-02-26T14:39:01;5.93;;;5.43;;
19436;SDS011;9854;50.968;4.168;2024-02-26T14:41:26;6.60;;;6.10;;
19436;SDS011;9854;50.968;4.168;2024-02-26T14:43:52;6.57;;;6.00;;
19436;SDS011;9854;50.968;4.168;2024-02-26T14:46:18;6.35;;;5.85;;
19436;SDS011;9854;50.968;4.168;2024-02-26T14:48:43;6.13;;;5.63;;
19436;SDS011;9854;50.968;4.168;2024-02-26T14:51:09;6.13;;;5.63;;
19436;SDS011;9854;50.968;4.168;2024-02-26T14:53:37;6.47;;;5.97;;
19436;SDS011;9854;50.968;4.168;2024-02-26T14:56:03;6.43;;;5.93;;
19436;SDS011;9854;50.968;4.168;2024-02-26T14:58:31;6.10;;;5.60;;
19436;SDS011;9854;50.968;4.168;2024-02-26T15:00:56;5.73;;;5.33;;
19436;SDS011;9854;50.968;4.168;2024-02-26T15:03:22;5.57;;;5.18;;